sensor_id;sensor_type;location;lat;lon;timestamp;temperature;humidity
11848;DHT22;5983;49.966;8.052;2022-08-25T00:01:43;20.10;98.30
11848;DHT22;5983;49.966;8.052;2022-08-25T00:04:13;20.10;98.40
11848;DHT22;5983;49.966;8.052;2022-08-25T00:06:43;20.10;98.80
11848;DHT22;5983;49.966;8.052;2022-08-25T00:09:12;20.10;99.30
11848;DHT22;5983;49.966;8.052;2022-08-25T00:11:42;20.20;99.50
11848;DHT22;5983;49.966;8.052;2022-08-25T00:14:11;20.10;99.40
11848;DHT22;5983;49.966;8.052;2022-08-25T00:16:40;20.10;99.50
11848;DHT22;5983;49.966;8.052;2022-08-25T00:19:11;20.10;99.60
11848;DHT22;5983;49.966;8.052;2022-08-25T00:21:40;20.10;99.90
11848;DHT22;5983;49.966;8.052;2022-08-25T00:24:15;20.10;99.90
11848;DHT22;5983;49.966;8.052;2022-08-25T00:26:55;20.00;99.90
11848;DHT22;5983;49.966;8.052;2022-08-25T00:29:26;20.00;99.90
11848;DHT22;5983;49.966;8.052;2022-08-25T00:31:55;20.00;99.90
11848;DHT22;5983;49.966;8.052;2022-08-25T00:34:26;20.00;99.90
11848;DHT22;5983;49.966;8.052;2022-08-25T00:36:57;19.90;99.90
11848;DHT22;5983;49.966;8.052;2022-08-25T00:39:24;19.90;99.90
11848;DHT22;5983;49.966;8.052;2022-08-25T00:41:53;19.90;99.90
11848;DHT22;5983;49.966;8.052;2022-08-25T00:44:23;19.80;99.90
11848;DHT22;5983;49.966;8.052;2022-08-25T00:46:53;19.80;99.90
11848;DHT22;5983;49.966;8.052;2022-08-25T00:49:26;19.70;99.90
11848;DHT22;5983;49.966;8.052;2022-08-25T00:51:59;19.70;99.90
11848;DHT22;5983;49.966;8.052;2022-08-25T00:54:32;19.70;99.90
11848;DHT22;5983;49.966;8.052;2022-08-25T00:57:04;19.70;99.90
11848;DHT22;5983;49.966;8.052;2022-08-25T00:59:33;19.70;99.90
11848;DHT22;5983;49.966;8.052;2022-08-25T01:02:01;19.70;99.90
11848;DHT22;5983;49.966;8.052;2022-08-25T01:04:30;19.70;99.90
11848;DHT22;5983;49.966;8.052;2022-08-25T01:06:59;19.60;99.90
11848;DHT22;5983;49.966;8.052;2022-08-25T01:09:28;19.60;99.90
11848;DHT22;5983;49.966;8.052;2022-08-25T01:11:57;19.50;99.90
11848;DHT22;5983;49.966;8.052;2022-08-25T01:14:26;19.50;99.90
11848;DHT22;5983;49.966;8.052;2022-08-25T01:16:56;19.50;99.90
11848;DHT22;5983;49.966;8.052;2022-08-25T01:19:24;19.40;99.90
11848;DHT22;5983;49.966;8.052;2022-08-25T01:21:55;19.40;99.90
11848;DHT22;5983;49.966;8.052;2022-08-25T01:24:25;19.40;99.90
11848;DHT22;5983;49.966;8.052;2022-08-25T01:26:57;19.40;99.90
11848;DHT22;5983;49.966;8.052;2022-08-25T01:29:24;19.30;99.90
11848;DHT22;5983;49.966;8.052;2022-08-25T01:31:54;19.30;99.90
11848;DHT22;5983;49.966;8.052;2022-08-25T01:34:23;19.30;99.90
11848;DHT22;5983;49.966;8.052;2022-08-25T01:36:55;19.30;99.90
11848;DHT22;5983;49.966;8.052;2022-08-25T01:39:25;19.30;99.90
11848;DHT22;5983;49.966;8.052;2022-08-25T01:42:12;19.30;99.90
11848;DHT22;5983;49.966;8.052;2022-08-25T01:44:46;19.30;99.90
11848;DHT22;5983;49.966;8.052;2022-08-25T01:47:14;19.20;99.90
11848;DHT22;5983;49.966;8.052;2022-08-25T01:49:42;19.20;99.90
11848;DHT22;5983;49.966;8.052;2022-08-25T01:52:15;19.10;99.90
11848;DHT22;5983;49.966;8.052;2022-08-25T01:54:45;19.10;99.90
11848;DHT22;5983;49.966;8.052;2022-08-25T01:57:18;19.20;99.90
11848;DHT22;5983;49.966;8.052;2022-08-25T01:59:46;19.20;99.90
11848;DHT22;5983;49.966;8.052;2022-08-25T02:02:14;19.20;99.90
11848;DHT22;5983;49.966;8.052;2022-08-25T02:04:41;19.20;99.90
11848;DHT22;5983;49.966;8.052;2022-08-25T02:07:08;19.20;99.90
11848;DHT22;5983;49.966;8.052;2022-08-25T02:09:37;19.20;99.90
11848;DHT22;5983;49.966;8.052;2022-08-25T02:12:05;19.20;99.90
11848;DHT22;5983;49.966;8.052;2022-08-25T02:14:33;19.20;99.90
11848;DHT22;5983;49.966;8.052;2022-08-25T02:17:02;19.10;99.90
11848;DHT22;5983;49.966;8.052;2022-08-25T02:19:30;19.10;99.90
11848;DHT22;5983;49.966;8.052;2022-08-25T02:21:58;19.10;99.90
11848;DHT22;5983;49.966;8.052;2022-08-25T02:24:25;19.00;99.90
11848;DHT22;5983;49.966;8.052;2022-08-25T02:26:54;19.00;99.90
11848;DHT22;5983;49.966;8.052;2022-08-25T02:29:22;19.00;99.90
11848;DHT22;5983;49.966;8.052;2022-08-25T02:31:49;19.00;99.90
11848;DHT22;5983;49.966;8.052;2022-08-25T02:34:16;19.00;99.90
11848;DHT22;5983;49.966;8.052;2022-08-25T02:36:44;19.00;99.90
11848;DHT22;5983;49.966;8.052;2022-08-25T02:39:11;18.90;99.90
11848;DHT22;5983;49.966;8.052;2022-08-25T02:41:38;18.90;99.90
11848;DHT22;5983;49.966;8.052;2022-08-25T02:44:08;18.90;99.90
11848;DHT22;5983;49.966;8.052;2022-08-25T02:46:36;18.80;99.90
11848;DHT22;5983;49.966;8.052;2022-08-25T02:49:03;18.70;99.90
11848;DHT22;5983;49.966;8.052;2022-08-25T02:51:30;18.70;99.90
11848;DHT22;5983;49.966;8.052;2022-08-25T02:53:59;18.70;99.90
11848;DHT22;5983;49.966;8.052;2022-08-25T02:56:28;18.60;99.90
11848;DHT22;5983;49.966;8.052;2022-08-25T02:58:57;18.70;99.90
11848;DHT22;5983;49.966;8.052;2022-08-25T03:01:26;18.70;99.90
11848;DHT22;5983;49.966;8.052;2022-08-25T03:03:53;18.60;99.90
11848;DHT22;5983;49.966;8.052;2022-08-25T03:06:21;18.70;99.90
11848;DHT22;5983;49.966;8.052;2022-08-25T03:08:49;18.60;99.90
11848;DHT22;5983;49.966;8.052;2022-08-25T03:11:17;18.60;99.90
11848;DHT22;5983;49.966;8.052;2022-08-25T03:13:45;18.60;99.90
11848;DHT22;5983;49.966;8.052;2022-08-25T03:16:14;18.50;99.90
11848;DHT22;5983;49.966;8.052;2022-08-25T03:18:42;18.50;99.90
11848;DHT22;5983;49.966;8.052;2022-08-25T03:21:10;18.50;99.90
11848;DHT22;5983;49.966;8.052;2022-08-25T03:23:39;18.50;99.90
11848;DHT22;5983;49.966;8.052;2022-08-25T03:26:07;18.50;99.90
11848;DHT22;5983;49.966;8.052;2022-08-25T03:28:52;18.50;99.90
11848;DHT22;5983;49.966;8.052;2022-08-25T03:31:20;18.40;99.90
11848;DHT22;5983;49.966;8.052;2022-08-25T03:33:48;18.40;99.90
11848;DHT22;5983;49.966;8.052;2022-08-25T03:36:15;18.30;99.90
11848;DHT22;5983;49.966;8.052;2022-08-25T03:38:42;18.30;99.90
11848;DHT22;5983;49.966;8.052;2022-08-25T03:41:13;18.30;99.90
11848;DHT22;5983;49.966;8.052;2022-08-25T03:43:42;18.30;99.90
11848;DHT22;5983;49.966;8.052;2022-08-25T03:46:16;18.30;99.90
11848;DHT22;5983;49.966;8.052;2022-08-25T03:48:45;18.30;99.90
11848;DHT22;5983;49.966;8.052;2022-08-25T03:51:18;18.30;99.90
11848;DHT22;5983;49.966;8.052;2022-08-25T03:53:46;18.20;99.90
11848;DHT22;5983;49.966;8.052;2022-08-25T03:56:13;18.10;99.90
11848;DHT22;5983;49.966;8.052;2022-08-25T03:58:40;18.00;99.90
11848;DHT22;5983;49.966;8.052;2022-08-25T04:01:07;18.00;99.90
11848;DHT22;5983;49.966;8.052;2022-08-25T04:03:34;17.90;99.90
11848;DHT22;5983;49.966;8.052;2022-08-25T04:06:03;17.90;99.90
11848;DHT22;5983;49.966;8.052;2022-08-25T04:08:33;17.90;99.90
11848;DHT22;5983;49.966;8.052;2022-08-25T04:11:05;17.90;99.90
11848;DHT22;5983;49.966;8.052;2022-08-25T04:13:33;17.90;99.90
11848;DHT22;5983;49.966;8.052;2022-08-25T04:16:01;18.00;99.90
11848;DHT22;5983;49.966;8.052;2022-08-25T04:18:28;18.00;99.90
11848;DHT22;5983;49.966;8.052;2022-08-25T04:21:01;17.90;99.90
11848;DHT22;5983;49.966;8.052;2022-08-25T04:23:29;18.00;99.90
11848;DHT22;5983;49.966;8.052;2022-08-25T04:25:58;17.90;99.90
11848;DHT22;5983;49.966;8.052;2022-08-25T04:28:25;17.90;99.90
11848;DHT22;5983;49.966;8.052;2022-08-25T04:30:52;17.90;99.90
11848;DHT22;5983;49.966;8.052;2022-08-25T04:33:19;17.90;99.90
11848;DHT22;5983;49.966;8.052;2022-08-25T04:35:48;17.90;99.90
11848;DHT22;5983;49.966;8.052;2022-08-25T04:38:15;17.90;99.90
11848;DHT22;5983;49.966;8.052;2022-08-25T04:40:43;17.80;99.90
11848;DHT22;5983;49.966;8.052;2022-08-25T04:43:11;17.80;99.90
11848;DHT22;5983;49.966;8.052;2022-08-25T04:45:38;17.80;99.90
11848;DHT22;5983;49.966;8.052;2022-08-25T04:48:06;17.80;99.90
11848;DHT22;5983;49.966;8.052;2022-08-25T04:50:36;17.90;99.90
11848;DHT22;5983;49.966;8.052;2022-08-25T04:53:04;17.90;99.90
11848;DHT22;5983;49.966;8.052;2022-08-25T04:55:30;17.80;99.90
11848;DHT22;5983;49.966;8.052;2022-08-25T04:57:58;17.90;99.90
11848;DHT22;5983;49.966;8.052;2022-08-25T05:00:26;17.90;99.90
11848;DHT22;5983;49.966;8.052;2022-08-25T05:02:53;17.90;99.90
11848;DHT22;5983;49.966;8.052;2022-08-25T05:05:20;17.90;99.90
11848;DHT22;5983;49.966;8.052;2022-08-25T05:07:47;17.90;99.90
11848;DHT22;5983;49.966;8.052;2022-08-25T05:10:14;17.90;99.90
11848;DHT22;5983;49.966;8.052;2022-08-25T05:12:41;18.00;99.90
11848;DHT22;5983;49.966;8.052;2022-08-25T05:15:11;18.10;99.90
11848;DHT22;5983;49.966;8.052;2022-08-25T05:17:57;18.20;99.90
11848;DHT22;5983;49.966;8.052;2022-08-25T05:20:25;18.20;99.90
11848;DHT22;5983;49.966;8.052;2022-08-25T05:22:54;18.20;99.90
11848;DHT22;5983;49.966;8.052;2022-08-25T05:25:20;18.30;99.90
11848;DHT22;5983;49.966;8.052;2022-08-25T05:27:47;18.30;99.90
11848;DHT22;5983;49.966;8.052;2022-08-25T05:30:14;18.40;99.90
11848;DHT22;5983;49.966;8.052;2022-08-25T05:32:42;18.50;99.90
11848;DHT22;5983;49.966;8.052;2022-08-25T05:35:10;18.60;99.90
11848;DHT22;5983;49.966;8.052;2022-08-25T05:37:37;18.80;99.90
11848;DHT22;5983;49.966;8.052;2022-08-25T05:40:05;18.90;99.90
11848;DHT22;5983;49.966;8.052;2022-08-25T05:42:33;19.10;99.90
11848;DHT22;5983;49.966;8.052;2022-08-25T05:45:01;19.20;99.90
11848;DHT22;5983;49.966;8.052;2022-08-25T05:47:29;19.30;99.90
11848;DHT22;5983;49.966;8.052;2022-08-25T05:49:56;19.50;99.90
11848;DHT22;5983;49.966;8.052;2022-08-25T05:52:25;19.70;99.90
11848;DHT22;5983;49.966;8.052;2022-08-25T05:54:53;19.90;99.90
11848;DHT22;5983;49.966;8.052;2022-08-25T05:57:20;20.10;99.90
11848;DHT22;5983;49.966;8.052;2022-08-25T05:59:47;20.30;99.90
11848;DHT22;5983;49.966;8.052;2022-08-25T06:02:14;20.50;99.90
11848;DHT22;5983;49.966;8.052;2022-08-25T06:04:59;20.80;99.90
11848;DHT22;5983;49.966;8.052;2022-08-25T06:07:27;20.90;99.90
11848;DHT22;5983;49.966;8.052;2022-08-25T06:09:55;21.10;99.90
11848;DHT22;5983;49.966;8.052;2022-08-25T06:12:22;21.30;99.90
11848;DHT22;5983;49.966;8.052;2022-08-25T06:14:49;21.50;99.90
11848;DHT22;5983;49.966;8.052;2022-08-25T06:17:16;21.60;99.90
11848;DHT22;5983;49.966;8.052;2022-08-25T06:19:43;21.80;99.90
11848;DHT22;5983;49.966;8.052;2022-08-25T06:22:10;21.90;99.90
11848;DHT22;5983;49.966;8.052;2022-08-25T06:24:38;22.20;99.90
11848;DHT22;5983;49.966;8.052;2022-08-25T06:27:05;22.30;99.90
11848;DHT22;5983;49.966;8.052;2022-08-25T06:29:32;22.50;99.90
11848;DHT22;5983;49.966;8.052;2022-08-25T06:31:59;22.80;99.90
11848;DHT22;5983;49.966;8.052;2022-08-25T06:34:26;22.90;99.90
11848;DHT22;5983;49.966;8.052;2022-08-25T06:36:53;23.00;99.90
11848;DHT22;5983;49.966;8.052;2022-08-25T06:39:21;23.20;99.90
11848;DHT22;5983;49.966;8.052;2022-08-25T06:41:54;23.40;99.90
11848;DHT22;5983;49.966;8.052;2022-08-25T06:44:22;23.60;99.90
11848;DHT22;5983;49.966;8.052;2022-08-25T06:46:50;23.80;99.90
11848;DHT22;5983;49.966;8.052;2022-08-25T06:49:17;24.00;99.90
11848;DHT22;5983;49.966;8.052;2022-08-25T06:51:45;24.20;99.90
11848;DHT22;5983;49.966;8.052;2022-08-25T06:54:12;24.30;99.90
11848;DHT22;5983;49.966;8.052;2022-08-25T06:56:40;24.60;99.90
11848;DHT22;5983;49.966;8.052;2022-08-25T06:59:09;24.80;99.90
11848;DHT22;5983;49.966;8.052;2022-08-25T07:01:36;25.10;99.90
11848;DHT22;5983;49.966;8.052;2022-08-25T07:04:05;25.20;99.90
11848;DHT22;5983;49.966;8.052;2022-08-25T07:06:33;25.40;99.90
11848;DHT22;5983;49.966;8.052;2022-08-25T07:09:02;25.60;99.90
11848;DHT22;5983;49.966;8.052;2022-08-25T07:11:30;25.80;99.90
11848;DHT22;5983;49.966;8.052;2022-08-25T07:13:59;26.00;99.90
11848;DHT22;5983;49.966;8.052;2022-08-25T07:16:29;26.10;99.90
11848;DHT22;5983;49.966;8.052;2022-08-25T07:18:57;26.20;99.90
11848;DHT22;5983;49.966;8.052;2022-08-25T07:21:26;26.30;99.90
11848;DHT22;5983;49.966;8.052;2022-08-25T07:23:54;26.40;99.90
11848;DHT22;5983;49.966;8.052;2022-08-25T07:26:25;26.70;99.90
11848;DHT22;5983;49.966;8.052;2022-08-25T07:28:54;26.90;99.90
11848;DHT22;5983;49.966;8.052;2022-08-25T07:31:23;27.10;99.90
11848;DHT22;5983;49.966;8.052;2022-08-25T07:33:52;27.30;99.80
11848;DHT22;5983;49.966;8.052;2022-08-25T07:36:36;27.40;99.40
11848;DHT22;5983;49.966;8.052;2022-08-25T07:39:03;27.70;99.20
11848;DHT22;5983;49.966;8.052;2022-08-25T07:41:31;27.90;98.60
11848;DHT22;5983;49.966;8.052;2022-08-25T07:44:01;28.10;98.20
11848;DHT22;5983;49.966;8.052;2022-08-25T07:46:29;28.30;97.50
11848;DHT22;5983;49.966;8.052;2022-08-25T07:48:57;28.50;97.00
11848;DHT22;5983;49.966;8.052;2022-08-25T07:51:24;28.60;97.00
11848;DHT22;5983;49.966;8.052;2022-08-25T07:53:51;28.70;96.90
11848;DHT22;5983;49.966;8.052;2022-08-25T07:56:18;28.80;96.80
11848;DHT22;5983;49.966;8.052;2022-08-25T07:58:46;29.00;95.50
11848;DHT22;5983;49.966;8.052;2022-08-25T08:01:14;28.90;95.10
11848;DHT22;5983;49.966;8.052;2022-08-25T08:03:42;28.90;95.20
11848;DHT22;5983;49.966;8.052;2022-08-25T08:06:13;29.00;95.20
11848;DHT22;5983;49.966;8.052;2022-08-25T08:08:43;29.00;94.90
11848;DHT22;5983;49.966;8.052;2022-08-25T08:11:14;29.20;94.60
11848;DHT22;5983;49.966;8.052;2022-08-25T08:13:42;29.30;94.10
11848;DHT22;5983;49.966;8.052;2022-08-25T08:16:10;29.40;94.10
11848;DHT22;5983;49.966;8.052;2022-08-25T08:18:39;29.60;93.20
11848;DHT22;5983;49.966;8.052;2022-08-25T08:21:12;29.60;93.00
11848;DHT22;5983;49.966;8.052;2022-08-25T08:23:41;29.70;93.00
11848;DHT22;5983;49.966;8.052;2022-08-25T08:26:08;29.80;92.90
11848;DHT22;5983;49.966;8.052;2022-08-25T08:28:35;29.90;92.30
11848;DHT22;5983;49.966;8.052;2022-08-25T08:31:02;30.00;91.80
11848;DHT22;5983;49.966;8.052;2022-08-25T08:33:30;30.20;91.20
11848;DHT22;5983;49.966;8.052;2022-08-25T08:35:58;30.40;91.00
11848;DHT22;5983;49.966;8.052;2022-08-25T08:38:28;30.60;90.60
11848;DHT22;5983;49.966;8.052;2022-08-25T08:41:02;30.80;90.40
11848;DHT22;5983;49.966;8.052;2022-08-25T08:44:04;30.90;89.70
11848;DHT22;5983;49.966;8.052;2022-08-25T08:46:42;31.10;88.90
11848;DHT22;5983;49.966;8.052;2022-08-25T08:49:23;31.30;87.70
11848;DHT22;5983;49.966;8.052;2022-08-25T08:51:59;31.30;86.50
11848;DHT22;5983;49.966;8.052;2022-08-25T08:54:33;31.40;85.80
11848;DHT22;5983;49.966;8.052;2022-08-25T08:57:06;31.40;85.20
11848;DHT22;5983;49.966;8.052;2022-08-25T08:59:43;31.60;85.00
11848;DHT22;5983;49.966;8.052;2022-08-25T09:02:21;31.70;84.30
11848;DHT22;5983;49.966;8.052;2022-08-25T09:04:56;31.80;83.20
11848;DHT22;5983;49.966;8.052;2022-08-25T09:07:31;31.80;82.30
11848;DHT22;5983;49.966;8.052;2022-08-25T09:10:04;31.80;81.10
11848;DHT22;5983;49.966;8.052;2022-08-25T09:12:35;31.80;80.70
11848;DHT22;5983;49.966;8.052;2022-08-25T09:15:13;31.80;79.70
11848;DHT22;5983;49.966;8.052;2022-08-25T09:18:02;31.70;79.60
11848;DHT22;5983;49.966;8.052;2022-08-25T09:20:44;31.80;79.00
11848;DHT22;5983;49.966;8.052;2022-08-25T09:23:33;32.00;76.40
11848;DHT22;5983;49.966;8.052;2022-08-25T09:26:16;31.90;75.20
11848;DHT22;5983;49.966;8.052;2022-08-25T09:28:55;31.80;74.10
11848;DHT22;5983;49.966;8.052;2022-08-25T09:31:31;31.80;74.20
11848;DHT22;5983;49.966;8.052;2022-08-25T09:34:03;31.70;73.90
11848;DHT22;5983;49.966;8.052;2022-08-25T09:36:32;31.80;74.10
11848;DHT22;5983;49.966;8.052;2022-08-25T09:39:00;31.80;73.70
11848;DHT22;5983;49.966;8.052;2022-08-25T09:41:43;31.90;73.70
11848;DHT22;5983;49.966;8.052;2022-08-25T09:44:20;31.90;73.10
11848;DHT22;5983;49.966;8.052;2022-08-25T09:46:58;32.00;72.60
11848;DHT22;5983;49.966;8.052;2022-08-25T09:49:33;32.00;72.70
11848;DHT22;5983;49.966;8.052;2022-08-25T09:52:23;32.10;70.80
11848;DHT22;5983;49.966;8.052;2022-08-25T09:54:59;32.00;71.00
11848;DHT22;5983;49.966;8.052;2022-08-25T09:57:46;32.00;71.40
11848;DHT22;5983;49.966;8.052;2022-08-25T10:00:17;32.20;71.10
11848;DHT22;5983;49.966;8.052;2022-08-25T10:03:03;32.30;69.00
11848;DHT22;5983;49.966;8.052;2022-08-25T10:05:34;32.40;68.70
11848;DHT22;5983;49.966;8.052;2022-08-25T10:08:27;32.50;67.10
11848;DHT22;5983;49.966;8.052;2022-08-25T10:10:59;32.70;67.80
11848;DHT22;5983;49.966;8.052;2022-08-25T10:13:36;32.70;67.50
11848;DHT22;5983;49.966;8.052;2022-08-25T10:16:12;32.90;67.00
11848;DHT22;5983;49.966;8.052;2022-08-25T10:19:00;32.90;66.30
11848;DHT22;5983;49.966;8.052;2022-08-25T10:21:31;33.00;66.30
11848;DHT22;5983;49.966;8.052;2022-08-25T10:23:59;33.10;66.10
11848;DHT22;5983;49.966;8.052;2022-08-25T10:26:35;33.00;66.00
11848;DHT22;5983;49.966;8.052;2022-08-25T10:29:25;33.10;66.10
11848;DHT22;5983;49.966;8.052;2022-08-25T10:32:06;33.10;63.60
11848;DHT22;5983;49.966;8.052;2022-08-25T10:34:45;33.10;64.20
11848;DHT22;5983;49.966;8.052;2022-08-25T10:37:22;33.20;64.60
11848;DHT22;5983;49.966;8.052;2022-08-25T10:40:07;33.20;64.40
11848;DHT22;5983;49.966;8.052;2022-08-25T10:42:52;33.30;63.00
11848;DHT22;5983;49.966;8.052;2022-08-25T10:45:36;33.30;62.20
11848;DHT22;5983;49.966;8.052;2022-08-25T10:51:31;33.50;61.00
11848;DHT22;5983;49.966;8.052;2022-08-25T10:54:10;33.80;61.90
11848;DHT22;5983;49.966;8.052;2022-08-25T10:56:51;33.90;60.80
11848;DHT22;5983;49.966;8.052;2022-08-25T10:59:34;33.70;59.70
11848;DHT22;5983;49.966;8.052;2022-08-25T11:02:36;33.60;59.70
11848;DHT22;5983;49.966;8.052;2022-08-25T11:05:25;33.50;59.00
11848;DHT22;5983;49.966;8.052;2022-08-25T11:07:59;33.40;59.30
11848;DHT22;5983;49.966;8.052;2022-08-25T11:10:40;33.20;59.80
11848;DHT22;5983;49.966;8.052;2022-08-25T11:13:16;33.00;60.40
11848;DHT22;5983;49.966;8.052;2022-08-25T11:15:54;33.20;60.70
11848;DHT22;5983;49.966;8.052;2022-08-25T11:18:29;33.30;60.80
11848;DHT22;5983;49.966;8.052;2022-08-25T11:21:02;33.40;59.70
11848;DHT22;5983;49.966;8.052;2022-08-25T11:23:37;33.40;60.10
11848;DHT22;5983;49.966;8.052;2022-08-25T11:26:09;33.50;60.50
11848;DHT22;5983;49.966;8.052;2022-08-25T11:28:48;33.70;59.20
11848;DHT22;5983;49.966;8.052;2022-08-25T11:31:20;33.80;58.20
11848;DHT22;5983;49.966;8.052;2022-08-25T11:33:50;33.90;57.70
11848;DHT22;5983;49.966;8.052;2022-08-25T11:36:24;34.00;57.20
11848;DHT22;5983;49.966;8.052;2022-08-25T11:39:05;33.80;57.00
11848;DHT22;5983;49.966;8.052;2022-08-25T11:41:49;33.80;57.40
11848;DHT22;5983;49.966;8.052;2022-08-25T11:44:45;33.60;57.60
11848;DHT22;5983;49.966;8.052;2022-08-25T11:47:31;33.60;58.10
11848;DHT22;5983;49.966;8.052;2022-08-25T11:50:25;33.50;57.40
11848;DHT22;5983;49.966;8.052;2022-08-25T11:52:56;33.50;57.10
11848;DHT22;5983;49.966;8.052;2022-08-25T11:55:44;33.30;57.30
11848;DHT22;5983;49.966;8.052;2022-08-25T11:58:42;33.40;56.50
11848;DHT22;5983;49.966;8.052;2022-08-25T12:04:36;34.10;56.00
11848;DHT22;5983;49.966;8.052;2022-08-25T12:07:24;34.40;54.90
11848;DHT22;5983;49.966;8.052;2022-08-25T12:10:14;34.30;54.10
11848;DHT22;5983;49.966;8.052;2022-08-25T12:13:01;34.00;54.60
11848;DHT22;5983;49.966;8.052;2022-08-25T12:18:42;33.70;55.20
11848;DHT22;5983;49.966;8.052;2022-08-25T12:21:13;33.60;56.00
11848;DHT22;5983;49.966;8.052;2022-08-25T12:23:45;34.00;55.80
11848;DHT22;5983;49.966;8.052;2022-08-25T12:26:40;34.20;54.60
11848;DHT22;5983;49.966;8.052;2022-08-25T12:29:18;34.30;54.10
11848;DHT22;5983;49.966;8.052;2022-08-25T12:32:08;34.30;54.50
11848;DHT22;5983;49.966;8.052;2022-08-25T12:35:25;34.40;54.50
11848;DHT22;5983;49.966;8.052;2022-08-25T12:37:58;34.60;53.80
11848;DHT22;5983;49.966;8.052;2022-08-25T12:40:32;34.60;53.60
11848;DHT22;5983;49.966;8.052;2022-08-25T12:43:06;34.60;53.20
11848;DHT22;5983;49.966;8.052;2022-08-25T12:45:42;34.80;52.50
11848;DHT22;5983;49.966;8.052;2022-08-25T12:48:41;34.90;51.90
11848;DHT22;5983;49.966;8.052;2022-08-25T12:51:21;35.00;51.60
11848;DHT22;5983;49.966;8.052;2022-08-25T12:53:51;35.10;51.40
11848;DHT22;5983;49.966;8.052;2022-08-25T12:56:26;35.20;51.20
11848;DHT22;5983;49.966;8.052;2022-08-25T12:59:09;35.20;51.40
11848;DHT22;5983;49.966;8.052;2022-08-25T13:05:10;35.00;51.80
11848;DHT22;5983;49.966;8.052;2022-08-25T13:08:16;34.90;51.70
11848;DHT22;5983;49.966;8.052;2022-08-25T13:10:57;34.80;52.20
11848;DHT22;5983;49.966;8.052;2022-08-25T13:13:38;34.80;53.10
11848;DHT22;5983;49.966;8.052;2022-08-25T13:16:17;34.70;52.40
11848;DHT22;5983;49.966;8.052;2022-08-25T13:18:46;34.60;52.10
11848;DHT22;5983;49.966;8.052;2022-08-25T13:21:15;34.50;51.70
11848;DHT22;5983;49.966;8.052;2022-08-25T13:23:46;34.50;51.90
11848;DHT22;5983;49.966;8.052;2022-08-25T13:26:21;34.40;51.90
11848;DHT22;5983;49.966;8.052;2022-08-25T13:28:57;34.40;52.10
11848;DHT22;5983;49.966;8.052;2022-08-25T13:31:29;34.50;51.70
11848;DHT22;5983;49.966;8.052;2022-08-25T13:33:58;34.30;51.80
11848;DHT22;5983;49.966;8.052;2022-08-25T13:36:29;34.00;51.70
11848;DHT22;5983;49.966;8.052;2022-08-25T13:39:16;33.80;52.30
11848;DHT22;5983;49.966;8.052;2022-08-25T13:41:48;33.80;53.00
11848;DHT22;5983;49.966;8.052;2022-08-25T13:44:20;33.90;53.10
11848;DHT22;5983;49.966;8.052;2022-08-25T13:47:04;33.80;52.10
11848;DHT22;5983;49.966;8.052;2022-08-25T13:49:33;33.60;52.30
11848;DHT22;5983;49.966;8.052;2022-08-25T13:52:02;33.50;52.80
11848;DHT22;5983;49.966;8.052;2022-08-25T13:54:38;33.50;52.80
11848;DHT22;5983;49.966;8.052;2022-08-25T13:57:13;33.60;53.10
11848;DHT22;5983;49.966;8.052;2022-08-25T13:59:49;33.60;52.90
11848;DHT22;5983;49.966;8.052;2022-08-25T14:02:39;33.50;52.80
11848;DHT22;5983;49.966;8.052;2022-08-25T14:05:09;33.40;52.60
11848;DHT22;5983;49.966;8.052;2022-08-25T14:07:38;33.30;52.70
11848;DHT22;5983;49.966;8.052;2022-08-25T14:10:09;33.30;52.80
11848;DHT22;5983;49.966;8.052;2022-08-25T14:12:40;33.10;53.10
11848;DHT22;5983;49.966;8.052;2022-08-25T14:15:26;33.20;53.30
11848;DHT22;5983;49.966;8.052;2022-08-25T14:18:02;33.20;52.90
11848;DHT22;5983;49.966;8.052;2022-08-25T14:20:33;33.20;53.30
11848;DHT22;5983;49.966;8.052;2022-08-25T14:23:04;33.20;52.90
11848;DHT22;5983;49.966;8.052;2022-08-25T14:25:38;33.10;53.10
11848;DHT22;5983;49.966;8.052;2022-08-25T14:28:13;33.10;53.60
11848;DHT22;5983;49.966;8.052;2022-08-25T14:30:46;33.20;52.90
11848;DHT22;5983;49.966;8.052;2022-08-25T14:33:19;33.20;52.70
11848;DHT22;5983;49.966;8.052;2022-08-25T14:35:50;33.20;52.60
11848;DHT22;5983;49.966;8.052;2022-08-25T14:38:22;33.00;52.50
11848;DHT22;5983;49.966;8.052;2022-08-25T14:40:49;32.70;52.80
11848;DHT22;5983;49.966;8.052;2022-08-25T14:43:19;32.50;53.30
11848;DHT22;5983;49.966;8.052;2022-08-25T14:45:49;32.40;53.90
11848;DHT22;5983;49.966;8.052;2022-08-25T14:48:24;32.50;54.00
11848;DHT22;5983;49.966;8.052;2022-08-25T14:50:56;32.60;54.20
11848;DHT22;5983;49.966;8.052;2022-08-25T14:53:26;32.70;54.10
11848;DHT22;5983;49.966;8.052;2022-08-25T14:55:53;32.80;53.70
11848;DHT22;5983;49.966;8.052;2022-08-25T14:58:24;32.80;53.70
11848;DHT22;5983;49.966;8.052;2022-08-25T15:00:55;32.60;53.70
11848;DHT22;5983;49.966;8.052;2022-08-25T15:03:30;32.50;53.70
11848;DHT22;5983;49.966;8.052;2022-08-25T15:06:00;32.40;53.70
11848;DHT22;5983;49.966;8.052;2022-08-25T15:08:31;32.30;53.90
11848;DHT22;5983;49.966;8.052;2022-08-25T15:11:15;32.20;54.30
11848;DHT22;5983;49.966;8.052;2022-08-25T15:13:42;32.30;54.40
11848;DHT22;5983;49.966;8.052;2022-08-25T15:16:12;32.30;54.60
11848;DHT22;5983;49.966;8.052;2022-08-25T15:18:44;32.30;55.30
11848;DHT22;5983;49.966;8.052;2022-08-25T15:21:11;32.20;54.90
11848;DHT22;5983;49.966;8.052;2022-08-25T15:23:38;32.00;54.90
11848;DHT22;5983;49.966;8.052;2022-08-25T15:26:08;31.90;55.40
11848;DHT22;5983;49.966;8.052;2022-08-25T15:28:37;31.90;55.80
11848;DHT22;5983;49.966;8.052;2022-08-25T15:31:07;31.80;56.10
11848;DHT22;5983;49.966;8.052;2022-08-25T15:33:35;31.70;56.20
11848;DHT22;5983;49.966;8.052;2022-08-25T15:36:03;31.60;56.00
11848;DHT22;5983;49.966;8.052;2022-08-25T15:38:30;31.60;56.10
11848;DHT22;5983;49.966;8.052;2022-08-25T15:40:57;31.40;56.00
11848;DHT22;5983;49.966;8.052;2022-08-25T15:43:24;31.40;56.10
11848;DHT22;5983;49.966;8.052;2022-08-25T15:45:51;31.30;56.10
11848;DHT22;5983;49.966;8.052;2022-08-25T15:48:18;31.20;56.50
11848;DHT22;5983;49.966;8.052;2022-08-25T15:50:46;31.10;56.10
11848;DHT22;5983;49.966;8.052;2022-08-25T15:53:13;31.10;56.20
11848;DHT22;5983;49.966;8.052;2022-08-25T15:55:40;31.00;56.30
11848;DHT22;5983;49.966;8.052;2022-08-25T15:58:07;31.00;56.70
11848;DHT22;5983;49.966;8.052;2022-08-25T16:00:34;31.00;56.90
11848;DHT22;5983;49.966;8.052;2022-08-25T16:03:01;30.90;56.40
11848;DHT22;5983;49.966;8.052;2022-08-25T16:05:28;30.90;56.80
11848;DHT22;5983;49.966;8.052;2022-08-25T16:07:56;30.90;56.80
11848;DHT22;5983;49.966;8.052;2022-08-25T16:10:24;30.90;56.80
11848;DHT22;5983;49.966;8.052;2022-08-25T16:12:51;30.80;56.60
11848;DHT22;5983;49.966;8.052;2022-08-25T16:15:18;30.80;56.90
11848;DHT22;5983;49.966;8.052;2022-08-25T16:17:45;30.70;56.80
11848;DHT22;5983;49.966;8.052;2022-08-25T16:20:14;30.70;56.90
11848;DHT22;5983;49.966;8.052;2022-08-25T16:22:42;30.60;57.10
11848;DHT22;5983;49.966;8.052;2022-08-25T16:25:11;30.50;57.20
11848;DHT22;5983;49.966;8.052;2022-08-25T16:27:38;30.50;57.70
11848;DHT22;5983;49.966;8.052;2022-08-25T16:30:06;30.50;57.70